createdAt,value
2022-08-17T00:00:01.791Z,5.00
2022-08-17T00:02:56.376Z,4.57
2022-08-17T00:05:23.466Z,4.57
2022-08-17T00:07:50.456Z,4.57
2022-08-17T00:10:17.407Z,4.95
2022-08-17T00:12:44.851Z,5.20
2022-08-17T00:15:13.546Z,4.72
2022-08-17T00:17:42.512Z,4.97
2022-08-17T00:20:12.108Z,4.78
2022-08-17T00:22:39.133Z,4.68
2022-08-17T00:25:12.059Z,4.70
2022-08-17T00:27:39.550Z,5.10
2022-08-17T00:30:08.685Z,4.50
2022-08-17T00:33:14.210Z,4.60
2022-08-17T00:35:33.031Z,4.90
2022-08-17T00:38:00.039Z,4.50
2022-08-17T00:40:27.288Z,4.50
2022-08-17T00:43:28.035Z,4.50
2022-08-17T00:45:55.108Z,5.05
2022-08-17T00:48:29.371Z,4.78
2022-08-17T00:51:03.092Z,5.00
2022-08-17T00:53:33.457Z,5.65
2022-08-17T00:56:03.225Z,5.63
2022-08-17T00:58:36.564Z,5.30
2022-08-17T01:01:05.274Z,5.00
2022-08-17T01:03:33.104Z,4.85
2022-08-17T01:06:02.634Z,4.43
2022-08-17T01:08:31.385Z,5.13
2022-08-17T01:11:02.295Z,4.22
2022-08-17T01:13:41.115Z,5.00
2022-08-17T01:16:11.713Z,5.20
2022-08-17T01:18:39.288Z,5.00
2022-08-17T01:21:22.766Z,4.75
2022-08-17T01:23:49.543Z,5.00
2022-08-17T01:26:16.648Z,5.35
2022-08-17T01:28:54.652Z,5.63
2022-08-17T01:31:25.238Z,5.45
2022-08-17T01:33:52.313Z,5.35
2022-08-17T01:36:19.824Z,4.95
2022-08-17T01:38:46.683Z,4.70
2022-08-17T01:41:16.476Z,5.00
2022-08-17T01:43:52.150Z,5.20
2022-08-17T01:46:23.719Z,4.63
2022-08-17T01:48:51.704Z,4.95
2022-08-17T01:51:20.038Z,5.20
2022-08-17T01:53:54.356Z,4.55
2022-08-17T01:56:24.421Z,5.00
2022-08-17T01:58:52.551Z,4.80
2022-08-17T02:01:22.089Z,4.93
2022-08-17T02:03:53.518Z,4.93
2022-08-17T02:06:28.411Z,4.80
2022-08-17T02:09:02.954Z,4.63
2022-08-17T02:11:32.344Z,4.80
2022-08-17T02:14:03.214Z,5.10
2022-08-17T02:16:37.668Z,5.13
2022-08-17T02:19:07.573Z,5.18
2022-08-17T02:21:35.236Z,6.07
2022-08-17T02:24:03.322Z,5.72
2022-08-17T02:26:30.164Z,5.25
2022-08-17T02:28:57.040Z,4.85
2022-08-17T02:31:23.838Z,5.20
2022-08-17T02:34:00.481Z,5.03
2022-08-17T02:36:32.028Z,4.75
2022-08-17T02:39:02.121Z,4.72
2022-08-17T02:41:29.023Z,5.20
2022-08-17T02:43:55.878Z,5.25
2022-08-17T02:46:22.749Z,5.10
2022-08-17T02:48:49.663Z,5.35
2022-08-17T02:51:16.605Z,5.03
2022-08-17T02:53:43.463Z,4.85
2022-08-17T02:56:10.423Z,5.50
2022-08-17T02:58:37.457Z,5.53
2022-08-17T03:01:06.623Z,4.80
2022-08-17T03:03:34.487Z,4.80
2022-08-17T03:06:01.888Z,4.63
2022-08-17T03:08:29.302Z,4.80
2022-08-17T03:10:56.534Z,5.07
2022-08-17T03:13:23.577Z,4.72
2022-08-17T03:15:50.721Z,4.43
2022-08-17T03:18:24.896Z,5.25
2022-08-17T03:20:59.179Z,5.15
2022-08-17T03:23:27.799Z,5.18
2022-08-17T03:25:57.457Z,5.13
2022-08-17T03:28:25.674Z,5.07
2022-08-17T03:30:52.905Z,4.93
2022-08-17T03:33:20.207Z,5.60
2022-08-17T03:35:47.537Z,5.30
2022-08-17T03:38:15.828Z,5.03
2022-08-17T03:40:57.104Z,4.57
2022-08-17T03:43:28.441Z,5.40
2022-08-17T03:46:33.842Z,5.63
2022-08-17T03:49:19.507Z,5.35
2022-08-17T03:52:04.911Z,5.13
2022-08-17T03:54:50.322Z,5.13
2022-08-17T03:57:17.135Z,5.53
2022-08-17T03:59:45.183Z,5.22
2022-08-17T04:02:19.168Z,5.13
2022-08-17T04:04:46.944Z,5.28
2022-08-17T04:07:13.870Z,4.93
2022-08-17T04:09:40.767Z,5.50
2022-08-17T04:12:08.000Z,4.90
2022-08-17T04:14:52.243Z,5.30
2022-08-17T04:17:22.981Z,5.13
2022-08-17T04:19:49.763Z,5.57
2022-08-17T04:22:30.869Z,5.07
2022-08-17T04:25:03.310Z,5.60
2022-08-17T04:27:30.076Z,5.15
2022-08-17T04:29:56.945Z,5.38
2022-08-17T04:32:59.370Z,5.68
2022-08-17T04:35:10.679Z,5.50
2022-08-17T04:37:37.489Z,5.47
2022-08-17T04:40:27.201Z,5.13
2022-08-17T04:43:13.376Z,4.90
2022-08-17T04:45:55.923Z,5.55
2022-08-17T04:48:36.477Z,5.43
2022-08-17T04:51:12.365Z,4.95
2022-08-17T04:53:41.679Z,4.95
2022-08-17T04:56:11.632Z,5.40
2022-08-17T04:58:49.881Z,5.03
2022-08-17T05:01:23.295Z,5.38
2022-08-17T05:03:52.346Z,5.10
2022-08-17T05:06:19.655Z,5.22
2022-08-17T05:08:46.505Z,4.68
2022-08-17T05:11:13.282Z,4.78
2022-08-17T05:13:40.210Z,4.75
2022-08-17T05:16:09.107Z,4.85
2022-08-17T05:18:38.784Z,5.35
2022-08-17T05:21:06.937Z,5.68
2022-08-17T05:23:42.874Z,5.05
2022-08-17T05:26:25.805Z,6.03
2022-08-17T05:28:54.627Z,6.28
2022-08-17T05:31:24.617Z,5.47
2022-08-17T05:33:52.053Z,5.63
2022-08-17T05:36:43.542Z,5.10
2022-08-17T05:39:06.664Z,5.28
2022-08-17T05:41:33.641Z,5.40
2022-08-17T05:44:00.427Z,4.88
2022-08-17T05:46:39.548Z,4.90
2022-08-17T05:49:08.121Z,4.93
2022-08-17T05:51:50.056Z,4.80
2022-08-17T05:54:59.839Z,3.95
2022-08-17T05:57:54.245Z,3.83
2022-08-17T06:00:31.885Z,4.13
2022-08-17T06:03:27.350Z,4.40
2022-08-17T06:06:25.281Z,4.60
2022-08-17T06:09:35.282Z,5.07
2022-08-17T06:12:19.753Z,4.88
2022-08-17T06:14:55.885Z,4.70
2022-08-17T06:17:25.201Z,3.55
2022-08-17T06:19:59.787Z,3.97
2022-08-17T06:22:33.375Z,3.38
2022-08-17T06:25:05.114Z,4.20
2022-08-17T06:27:49.010Z,3.95
2022-08-17T06:30:57.477Z,3.75
2022-08-17T06:33:26.734Z,3.85
2022-08-17T06:36:09.846Z,4.53
2022-08-17T06:38:53.310Z,3.80
2022-08-17T06:41:29.015Z,4.13
2022-08-17T06:44:43.693Z,3.85
2022-08-17T06:47:28.578Z,3.65
2022-08-17T06:50:30.961Z,3.28
2022-08-17T06:53:04.438Z,3.50
2022-08-17T06:56:11.061Z,3.45
2022-08-17T06:58:41.696Z,3.33
2022-08-17T07:01:25.247Z,3.70
2022-08-17T07:03:59.695Z,2.97
2022-08-17T07:06:47.518Z,3.22
2022-08-17T07:09:23.451Z,3.20
2022-08-17T07:11:54.761Z,3.22
2022-08-17T07:14:36.743Z,3.40
2022-08-17T07:17:15.727Z,3.45
2022-08-17T07:19:45.725Z,3.10
2022-08-17T07:22:53.533Z,3.45
2022-08-17T07:25:26.503Z,3.25
2022-08-17T07:28:00.432Z,2.95
2022-08-17T07:30:31.651Z,2.72
2022-08-17T07:33:12.686Z,3.03
2022-08-17T07:35:44.346Z,3.05
2022-08-17T07:38:25.788Z,2.60
2022-08-17T07:41:02.785Z,3.22
2022-08-17T07:43:38.102Z,2.90
2022-08-17T07:46:37.339Z,2.75
2022-08-17T07:49:05.065Z,2.75
2022-08-17T07:51:36.409Z,2.50
2022-08-17T07:54:22.345Z,2.60
2022-08-17T07:56:50.923Z,2.50
2022-08-17T07:59:40.737Z,3.40
2022-08-17T08:02:38.893Z,3.03
2022-08-17T08:05:50.097Z,2.70
2022-08-17T08:08:24.355Z,2.60
2022-08-17T08:11:29.768Z,2.35
2022-08-17T08:14:20.671Z,2.60
2022-08-17T08:17:07.362Z,2.88
2022-08-17T08:19:36.404Z,2.60
2022-08-17T08:22:12.054Z,2.47
2022-08-17T08:24:51.447Z,2.80
2022-08-17T08:27:49.485Z,2.72
2022-08-17T08:30:21.311Z,2.40
2022-08-17T08:32:51.345Z,2.60
2022-08-17T08:35:32.434Z,2.60
2022-08-17T08:38:13.797Z,2.83
2022-08-17T08:41:01.872Z,2.85
2022-08-17T08:43:52.854Z,2.35
2022-08-17T08:46:48.300Z,2.55
2022-08-17T08:49:29.819Z,2.45
2022-08-17T08:52:25.834Z,2.45
2022-08-17T08:55:15.631Z,2.72
2022-08-17T08:57:56.985Z,2.30
2022-08-17T09:00:26.021Z,2.38
2022-08-17T09:02:58.686Z,2.58
2022-08-17T09:05:49.699Z,2.50
2022-08-17T09:08:44.084Z,2.90
2022-08-17T09:11:24.614Z,2.38
2022-08-17T09:14:00.781Z,2.47
2022-08-17T09:16:36.875Z,2.85
2022-08-17T09:19:16.082Z,2.20
2022-08-17T09:21:52.632Z,2.75
2022-08-17T09:24:31.350Z,2.83
2022-08-17T09:27:03.587Z,2.65
2022-08-17T09:29:35.292Z,2.70
2022-08-17T09:32:14.653Z,2.42
2022-08-17T09:34:51.008Z,2.85
2022-08-17T09:37:43.801Z,2.47
2022-08-17T09:40:33.731Z,2.60
2022-08-17T09:43:08.698Z,2.20
2022-08-17T09:45:39.762Z,2.88
2022-08-17T09:48:14.910Z,2.60
2022-08-17T09:51:05.666Z,2.50
2022-08-17T09:53:36.366Z,2.50
2022-08-17T09:56:10.002Z,2.72
2022-08-17T09:59:05.081Z,3.00
2022-08-17T10:01:51.630Z,2.67
2022-08-17T10:04:47.824Z,2.67
2022-08-17T10:07:31.747Z,2.30
2022-08-17T10:10:32.508Z,2.70
2022-08-17T10:13:35.849Z,2.33
2022-08-17T10:16:23.155Z,2.90
2022-08-17T10:19:08.859Z,2.70
2022-08-17T10:22:01.385Z,2.60
2022-08-17T10:25:22.183Z,2.65
2022-08-17T10:28:01.962Z,2.30
2022-08-17T10:30:33.384Z,3.10
2022-08-17T10:33:04.803Z,2.55
2022-08-17T10:35:34.039Z,2.63
2022-08-17T10:38:16.195Z,2.50
2022-08-17T10:40:59.320Z,2.35
2022-08-17T10:44:37.906Z,2.15
2022-08-17T10:47:03.241Z,2.60
2022-08-17T10:49:34.065Z,2.72
2022-08-17T10:52:22.877Z,2.70
2022-08-17T10:54:58.006Z,2.63
2022-08-17T10:57:34.646Z,2.35
2022-08-17T11:00:18.021Z,2.75
2022-08-17T11:02:55.456Z,2.42
2022-08-17T11:05:45.550Z,3.00
2022-08-17T11:08:38.859Z,3.00
2022-08-17T11:11:26.516Z,2.45
2022-08-17T11:14:15.003Z,2.55
2022-08-17T11:17:06.582Z,3.08
2022-08-17T11:19:59.259Z,2.70
2022-08-17T11:22:31.321Z,2.90
2022-08-17T11:25:20.150Z,2.58
2022-08-17T11:27:53.765Z,2.80
2022-08-17T11:30:48.935Z,2.70
2022-08-17T11:33:58.876Z,2.70
2022-08-17T11:36:37.696Z,2.35
2022-08-17T11:39:16.775Z,2.40
2022-08-17T11:41:55.754Z,2.60
2022-08-17T11:44:25.647Z,2.80
2022-08-17T11:48:09.417Z,2.50
2022-08-17T11:51:23.562Z,2.50
2022-08-17T11:53:50.263Z,2.60
2022-08-17T11:56:41.923Z,2.60
2022-08-17T11:59:30.764Z,2.35
2022-08-17T12:01:57.758Z,2.47
2022-08-17T12:04:31.900Z,2.25
2022-08-17T12:07:13.261Z,2.60
2022-08-17T12:09:45.706Z,2.40
2022-08-17T12:12:20.354Z,2.80
2022-08-17T12:15:11.412Z,2.30
2022-08-17T12:17:40.767Z,2.53
2022-08-17T12:20:23.527Z,2.53
2022-08-17T12:23:01.231Z,2.33
2022-08-17T12:25:42.560Z,2.42
2022-08-17T12:28:26.315Z,2.30
2022-08-17T12:30:53.721Z,2.28
2022-08-17T12:33:28.655Z,2.58
2022-08-17T12:36:03.312Z,2.35
2022-08-17T12:38:36.194Z,3.00
2022-08-17T12:41:24.206Z,2.88
2022-08-17T12:44:22.305Z,2.55
2022-08-17T12:47:02.145Z,3.15
2022-08-17T12:49:32.913Z,2.45
2022-08-17T12:52:12.477Z,2.90
2022-08-17T12:54:46.939Z,2.58
2022-08-17T12:57:24.264Z,2.28
2022-08-17T12:59:59.115Z,2.70
2022-08-17T13:02:39.753Z,2.60
2022-08-17T13:05:14.569Z,2.65
2022-08-17T13:07:42.779Z,2.30
2022-08-17T13:10:19.269Z,2.22
2022-08-17T13:12:46.240Z,2.38
2022-08-17T13:15:21.647Z,2.50
2022-08-17T13:18:04.745Z,2.13
2022-08-17T13:20:31.919Z,2.28
2022-08-17T13:23:01.354Z,2.30
2022-08-17T13:25:29.757Z,2.50
2022-08-17T13:27:56.812Z,2.03
2022-08-17T13:30:33.301Z,2.30
2022-08-17T13:33:20.729Z,2.13
2022-08-17T13:36:07.198Z,3.08
2022-08-17T13:38:49.760Z,2.50
2022-08-17T13:41:37.802Z,2.40
2022-08-17T13:44:31.074Z,2.72
2022-08-17T13:46:59.658Z,2.70
2022-08-17T13:49:33.894Z,2.35
2022-08-17T13:52:52.299Z,3.03
2022-08-17T13:55:22.704Z,2.95
2022-08-17T13:58:03.630Z,3.10
2022-08-17T14:00:36.441Z,2.50
2022-08-17T14:03:05.608Z,3.05
2022-08-17T14:05:33.884Z,2.92
2022-08-17T14:08:06.683Z,3.05
2022-08-17T14:10:36.465Z,3.05
2022-08-17T14:13:04.412Z,2.70
2022-08-17T14:15:56.041Z,3.10
2022-08-17T14:18:37.509Z,3.10
2022-08-17T14:21:08.470Z,2.78
2022-08-17T14:23:36.709Z,3.13
2022-08-17T14:26:04.671Z,3.08
2022-08-17T14:28:32.157Z,2.63
2022-08-17T14:31:00.785Z,3.10
2022-08-17T14:33:28.834Z,2.85
2022-08-17T14:35:55.950Z,2.63
2022-08-17T14:38:22.805Z,3.15
2022-08-17T14:40:49.945Z,2.65
2022-08-17T14:43:18.000Z,4.00
2022-08-17T14:45:44.893Z,2.72
2022-08-17T14:48:12.094Z,3.00
2022-08-17T14:50:42.211Z,2.78
2022-08-17T14:53:11.575Z,3.25
2022-08-17T14:55:40.792Z,2.88
2022-08-17T14:58:08.819Z,3.28
2022-08-17T15:00:35.809Z,3.15
2022-08-17T15:03:03.424Z,3.40
2022-08-17T15:05:36.731Z,2.85
2022-08-17T15:08:05.631Z,3.10
2022-08-17T15:10:33.269Z,2.90
2022-08-17T15:13:00.565Z,3.05
2022-08-17T15:15:28.564Z,3.40
2022-08-17T15:17:55.835Z,3.30
2022-08-17T15:20:28.130Z,3.38
2022-08-17T15:22:57.592Z,3.15
2022-08-17T15:25:30.294Z,2.80
2022-08-17T15:27:57.445Z,3.08
2022-08-17T15:30:26.046Z,3.05
2022-08-17T15:32:55.175Z,3.15
2022-08-17T15:35:27.737Z,3.30
2022-08-17T15:38:11.680Z,3.25
2022-08-17T15:40:42.762Z,3.50
2022-08-17T15:43:27.278Z,3.30
2022-08-17T15:46:01.944Z,3.15
2022-08-17T15:48:41.479Z,3.28
2022-08-17T15:51:11.356Z,3.15
2022-08-17T15:53:40.135Z,3.03
2022-08-17T15:56:07.256Z,3.10
2022-08-17T15:58:35.567Z,3.13
2022-08-17T16:01:14.869Z,3.00
2022-08-17T16:04:03.924Z,3.20
2022-08-17T16:06:32.325Z,3.30
2022-08-17T16:09:00.455Z,3.08
2022-08-17T16:11:27.281Z,3.05
2022-08-17T16:13:55.100Z,3.60
2022-08-17T16:16:23.776Z,3.83
2022-08-17T16:18:54.748Z,3.20
2022-08-17T16:21:27.077Z,2.85
2022-08-17T16:24:00.801Z,3.35
2022-08-17T16:26:29.724Z,3.28
2022-08-17T16:28:59.112Z,3.33
2022-08-17T16:31:26.131Z,2.80
2022-08-17T16:34:03.768Z,2.80
2022-08-17T16:36:41.527Z,3.15
2022-08-17T16:39:20.813Z,3.25
2022-08-17T16:41:47.718Z,3.30
2022-08-17T16:44:19.117Z,2.72
2022-08-17T16:46:48.217Z,3.17
2022-08-17T16:49:34.453Z,2.78
2022-08-17T16:52:07.192Z,3.22
2022-08-17T16:54:35.453Z,2.95
2022-08-17T16:57:05.141Z,2.50
2022-08-17T16:59:41.840Z,2.70
2022-08-17T17:02:16.975Z,2.78
2022-08-17T17:04:53.356Z,2.75
2022-08-17T17:07:32.282Z,2.58
2022-08-17T17:09:59.969Z,2.72
2022-08-17T17:13:01.273Z,2.83
2022-08-17T17:15:21.975Z,2.97
2022-08-17T17:17:50.609Z,3.17
2022-08-17T17:20:29.013Z,2.88
2022-08-17T17:23:19.128Z,3.15
2022-08-17T17:26:32.283Z,2.88
2022-08-17T17:29:11.058Z,3.60
2022-08-17T17:31:55.025Z,3.20
2022-08-17T17:34:22.836Z,3.05
2022-08-17T17:36:54.163Z,3.53
2022-08-17T17:39:29.696Z,3.15
2022-08-17T17:41:59.621Z,2.75
2022-08-17T17:44:33.162Z,2.78
2022-08-17T17:47:03.384Z,3.65
2022-08-17T17:49:35.179Z,3.00
2022-08-17T17:52:26.123Z,2.70
2022-08-17T17:55:16.813Z,3.30
2022-08-17T17:57:58.910Z,3.22
2022-08-17T18:00:30.585Z,2.75
2022-08-17T18:03:31.170Z,3.17
2022-08-17T18:06:22.802Z,2.83
2022-08-17T18:09:10.369Z,2.80
2022-08-17T18:12:00.644Z,2.90
2022-08-17T18:15:01.699Z,2.60
2022-08-17T18:17:29.908Z,2.60
2022-08-17T18:19:57.434Z,2.72
2022-08-17T18:22:25.342Z,2.92
2022-08-17T18:24:58.111Z,3.47
2022-08-17T18:27:33.714Z,2.90
2022-08-17T18:30:21.867Z,3.13
2022-08-17T18:32:48.730Z,3.30
2022-08-17T18:35:18.554Z,2.70
2022-08-17T18:37:49.956Z,3.17
2022-08-17T18:40:17.084Z,3.10
2022-08-17T18:42:50.618Z,2.95
2022-08-17T18:45:38.944Z,3.15
2022-08-17T18:48:17.999Z,3.20
2022-08-17T18:50:45.282Z,3.60
2022-08-17T18:53:26.783Z,3.63
2022-08-17T18:56:16.946Z,3.42
2022-08-17T18:58:52.158Z,3.28
2022-08-17T19:01:21.733Z,3.47
2022-08-17T19:04:15.710Z,3.30
2022-08-17T19:06:42.981Z,3.78
2022-08-17T19:09:33.945Z,3.38
2022-08-17T19:12:08.422Z,3.63
2022-08-17T19:14:36.003Z,3.10
2022-08-17T19:17:16.543Z,3.65
2022-08-17T19:19:56.279Z,3.65
2022-08-17T19:23:02.269Z,3.67
2022-08-17T19:25:36.309Z,3.53
2022-08-17T19:28:12.683Z,3.40
2022-08-17T19:30:54.740Z,2.88
2022-08-17T19:33:22.039Z,3.67
2022-08-17T19:36:01.215Z,4.18
2022-08-17T19:38:46.780Z,3.20
2022-08-17T19:41:28.244Z,4.25
2022-08-17T19:43:57.932Z,3.90
2022-08-17T19:46:48.715Z,3.25
2022-08-17T19:49:33.537Z,3.08
2022-08-17T19:52:24.376Z,3.40
2022-08-17T19:54:57.092Z,3.05
2022-08-17T19:57:43.988Z,3.58
2022-08-17T20:00:15.536Z,3.58
2022-08-17T20:03:16.672Z,3.70
2022-08-17T20:06:11.951Z,3.65
2022-08-17T20:08:49.013Z,3.58
2022-08-17T20:11:21.184Z,3.47
2022-08-17T20:13:56.224Z,3.83
2022-08-17T20:16:24.675Z,3.60
2022-08-17T20:19:19.334Z,3.35
2022-08-17T20:21:48.738Z,3.50
2022-08-17T20:24:22.910Z,3.50
2022-08-17T20:26:58.703Z,2.95
2022-08-17T20:29:55.175Z,4.00
2022-08-17T20:32:26.900Z,3.40
2022-08-17T20:35:09.074Z,4.10
2022-08-17T20:37:43.222Z,3.58
2022-08-17T20:40:10.050Z,3.45
2022-08-17T20:42:37.257Z,3.63
2022-08-17T20:45:23.374Z,3.58
2022-08-17T20:48:27.232Z,3.45
2022-08-17T20:50:52.731Z,3.67
2022-08-17T20:53:47.585Z,3.42
2022-08-17T20:56:43.494Z,3.83
2022-08-17T20:59:25.593Z,3.13
2022-08-17T21:02:17.548Z,3.25
2022-08-17T21:04:46.428Z,3.10
2022-08-17T21:07:43.010Z,3.08
2022-08-17T21:10:13.979Z,2.88
2022-08-17T21:12:44.447Z,3.05
2022-08-17T21:15:48.628Z,3.55
2022-08-17T21:18:38.813Z,3.13
2022-08-17T21:21:08.242Z,3.20
2022-08-17T21:24:14.777Z,3.55
2022-08-17T21:27:06.567Z,3.63
2022-08-17T21:29:39.683Z,3.53
2022-08-17T21:32:09.030Z,3.15
2022-08-17T21:34:43.256Z,3.20
2022-08-17T21:37:18.893Z,3.17
2022-08-17T21:39:51.963Z,2.88
2022-08-17T21:42:25.715Z,3.20
2022-08-17T21:44:58.048Z,3.03
2022-08-17T21:47:28.233Z,3.45
2022-08-17T21:50:13.219Z,2.97
2022-08-17T21:52:40.563Z,3.40
2022-08-17T21:55:17.867Z,3.33
2022-08-17T21:57:53.052Z,3.40
2022-08-17T22:00:33.073Z,3.17
2022-08-17T22:03:07.024Z,3.03
2022-08-17T22:05:39.931Z,3.03
2022-08-17T22:08:19.615Z,3.05
2022-08-17T22:10:49.132Z,3.22
2022-08-17T22:13:19.744Z,3.10
2022-08-17T22:15:49.782Z,3.00
2022-08-17T22:18:25.515Z,3.58
2022-08-17T22:20:56.469Z,3.60
2022-08-17T22:23:44.233Z,3.10
2022-08-17T22:26:14.083Z,3.53
2022-08-17T22:28:46.227Z,3.30
2022-08-17T22:31:24.785Z,3.50
2022-08-17T22:34:09.776Z,3.60
2022-08-17T22:36:38.835Z,3.45
2022-08-17T22:39:11.551Z,3.55
2022-08-17T22:41:50.573Z,3.30
2022-08-17T22:44:23.505Z,3.83
2022-08-17T22:46:58.748Z,3.90
2022-08-17T22:49:54.017Z,4.10
2022-08-17T22:52:56.068Z,4.03
2022-08-17T22:55:42.424Z,4.65
2022-08-17T22:58:37.252Z,3.95
2022-08-17T23:01:25.614Z,4.13
2022-08-17T23:03:56.882Z,4.75
2022-08-17T23:06:24.415Z,4.50
2022-08-17T23:08:56.827Z,4.53
2022-08-17T23:11:47.814Z,4.05
2022-08-17T23:14:15.735Z,4.43
2022-08-17T23:16:42.739Z,4.63
2022-08-17T23:19:12.369Z,4.68
2022-08-17T23:21:39.737Z,4.45
2022-08-17T23:24:08.933Z,4.50
2022-08-17T23:26:43.764Z,4.30
2022-08-17T23:29:11.146Z,4.95
2022-08-17T23:31:40.954Z,4.65
2022-08-17T23:34:11.793Z,4.63
2022-08-17T23:36:38.944Z,4.40
2022-08-17T23:39:07.063Z,4.78
2022-08-17T23:41:39.956Z,4.70
2022-08-17T23:44:07.721Z,4.80
2022-08-17T23:46:35.019Z,4.90
2022-08-17T23:49:02.007Z,4.90
2022-08-17T23:51:34.656Z,4.60
2022-08-17T23:54:11.713Z,5.03
2022-08-17T23:56:56.511Z,4.85
2022-08-17T23:59:23.757Z,4.82
